createdAt,value
2023-03-19T00:02:30.149Z,94679
2023-03-19T00:05:55.309Z,94677
2023-03-19T00:09:20.559Z,94680
2023-03-19T00:12:45.782Z,94683
2023-03-19T00:16:11.134Z,94687
2023-03-19T00:19:36.218Z,94686
2023-03-19T00:23:01.448Z,94678
2023-03-19T00:26:26.671Z,94675
2023-03-19T00:29:51.877Z,94670
2023-03-19T00:33:17.167Z,94673
2023-03-19T00:36:42.306Z,94675
2023-03-19T00:40:07.522Z,94674
2023-03-19T00:43:32.750Z,94669
2023-03-19T00:46:57.961Z,94672
2023-03-19T00:50:23.161Z,94666
2023-03-19T00:53:48.353Z,94659
2023-03-19T00:57:13.564Z,94657
2023-03-19T01:03:55.805Z,94654
2023-03-19T01:07:21.043Z,94649
2023-03-19T01:10:46.223Z,94655
2023-03-19T01:14:11.417Z,94659
2023-03-19T01:17:34.578Z,94657
2023-03-19T01:20:59.808Z,94653
2023-03-19T01:24:25.019Z,94655
2023-03-19T01:27:50.221Z,94651
2023-03-19T01:31:15.482Z,94658
2023-03-19T01:34:40.640Z,94660
2023-03-19T01:38:05.877Z,94652
2023-03-19T01:41:31.117Z,94663
2023-03-19T01:44:56.288Z,94664
2023-03-19T01:48:21.525Z,94664
2023-03-19T01:51:46.725Z,94665
2023-03-19T01:55:11.926Z,94663
2023-03-19T01:58:37.172Z,94657
2023-03-19T02:02:02.543Z,94659
2023-03-19T02:05:27.598Z,94658
2023-03-19T02:08:52.817Z,94661
2023-03-19T02:12:18.017Z,94658
2023-03-19T02:15:43.316Z,94655
2023-03-19T02:19:08.398Z,94655
2023-03-19T02:22:33.621Z,94649
2023-03-19T02:25:58.827Z,94653
2023-03-19T02:29:24.028Z,94648
2023-03-19T02:32:49.285Z,94646
2023-03-19T02:36:14.439Z,94647
2023-03-19T02:39:39.673Z,94650
2023-03-19T02:43:04.874Z,94655
2023-03-19T02:46:30.104Z,94655
2023-03-19T02:49:55.324Z,94645
2023-03-19T02:53:20.477Z,94646
2023-03-19T02:56:45.688Z,94642
2023-03-19T03:00:10.934Z,94641
2023-03-19T03:03:36.096Z,94640
2023-03-19T03:07:01.357Z,94645
2023-03-19T03:10:26.532Z,94647
2023-03-19T03:13:51.743Z,94645
2023-03-19T03:17:16.945Z,94644
2023-03-19T03:20:42.181Z,94645
2023-03-19T03:24:07.384Z,94647
2023-03-19T03:27:32.565Z,94649
2023-03-19T03:30:57.780Z,94650
2023-03-19T03:34:22.972Z,94651
2023-03-19T03:37:48.195Z,94654
2023-03-19T03:41:13.400Z,94651
2023-03-19T03:44:38.590Z,94651
2023-03-19T03:48:03.772Z,94655
2023-03-19T03:51:28.965Z,94663
2023-03-19T03:54:54.168Z,94664
2023-03-19T03:58:19.403Z,94666
2023-03-19T04:01:44.621Z,94671
2023-03-19T04:05:09.799Z,94674
2023-03-19T04:08:35.010Z,94670
2023-03-19T04:12:00.264Z,94669
2023-03-19T04:15:25.473Z,94661
2023-03-19T04:18:50.686Z,94662
2023-03-19T04:22:15.866Z,94668
2023-03-19T04:25:41.085Z,94666
2023-03-19T04:29:06.268Z,94671
2023-03-19T04:32:31.535Z,94667
2023-03-19T04:35:56.743Z,94671
2023-03-19T04:39:21.906Z,94675
2023-03-19T04:42:47.138Z,94680
2023-03-19T04:46:12.365Z,94689
2023-03-19T04:49:37.524Z,94693
2023-03-19T04:53:02.715Z,94694
2023-03-19T04:56:27.919Z,94697
2023-03-19T04:59:53.125Z,94695
2023-03-19T05:03:18.332Z,94704
2023-03-19T05:06:43.570Z,94704
2023-03-19T05:10:08.779Z,94700
2023-03-19T05:13:34.007Z,94700
2023-03-19T05:16:59.219Z,94705
2023-03-19T05:20:24.871Z,94706
2023-03-19T05:23:50.128Z,94704
2023-03-19T05:27:15.323Z,94707
2023-03-19T05:30:40.547Z,94704
2023-03-19T05:34:05.761Z,94706
2023-03-19T05:37:30.962Z,94707
2023-03-19T05:40:56.213Z,94712
2023-03-19T05:44:21.428Z,94714
2023-03-19T05:47:46.645Z,94711
2023-03-19T05:51:11.839Z,94717
2023-03-19T05:54:37.060Z,94713
2023-03-19T05:58:02.298Z,94716
2023-03-19T06:01:27.511Z,94721
2023-03-19T06:04:52.741Z,94721
2023-03-19T06:08:17.981Z,94718
2023-03-19T06:11:43.194Z,94720
2023-03-19T06:15:08.403Z,94724
2023-03-19T06:18:33.634Z,94728
2023-03-19T06:21:58.871Z,94731
2023-03-19T06:25:24.067Z,94730
2023-03-19T06:28:49.294Z,94735
2023-03-19T06:32:14.526Z,94732
2023-03-19T06:35:39.779Z,94735
2023-03-19T06:39:04.971Z,94739
2023-03-19T06:42:30.246Z,94737
2023-03-19T06:45:55.473Z,94741
2023-03-19T06:49:20.644Z,94745
2023-03-19T06:52:45.866Z,94746
2023-03-19T06:56:11.075Z,94753
2023-03-19T06:59:36.305Z,94762
2023-03-19T07:03:01.530Z,94759
2023-03-19T07:06:26.805Z,94762
2023-03-19T07:09:51.990Z,94778
2023-03-19T07:13:17.233Z,94777
2023-03-19T07:16:42.497Z,94780
2023-03-19T07:20:07.647Z,94791
2023-03-19T07:23:32.899Z,94800
2023-03-19T07:26:58.079Z,94804
2023-03-19T07:30:23.289Z,94805
2023-03-19T07:33:48.547Z,94802
2023-03-19T07:37:13.716Z,94801
2023-03-19T07:40:43.361Z,94800
2023-03-19T07:44:04.142Z,94802
2023-03-19T07:47:29.768Z,94801
2023-03-19T07:50:54.588Z,94806
2023-03-19T07:54:19.766Z,94802
2023-03-19T07:57:44.990Z,94803
2023-03-19T08:01:10.204Z,94807
2023-03-19T08:04:35.397Z,94811
2023-03-19T08:08:00.600Z,94803
2023-03-19T08:11:25.827Z,94810
2023-03-19T08:14:51.090Z,94808
2023-03-19T08:18:16.259Z,94808
2023-03-19T08:21:41.497Z,94814
2023-03-19T08:25:06.687Z,94809
2023-03-19T08:28:31.897Z,94815
2023-03-19T08:31:57.136Z,94814
2023-03-19T08:35:22.316Z,94819
2023-03-19T08:38:47.514Z,94817
2023-03-19T08:42:12.724Z,94826
2023-03-19T08:45:37.953Z,94826
2023-03-19T08:49:03.182Z,94827
2023-03-19T08:52:28.369Z,94830
2023-03-19T08:55:53.608Z,94836
2023-03-19T08:59:18.825Z,94836
2023-03-19T09:02:44.033Z,94837
2023-03-19T09:06:09.302Z,94837
2023-03-19T09:09:34.519Z,94841
2023-03-19T09:12:59.789Z,94837
2023-03-19T09:16:25.049Z,94844
2023-03-19T09:19:50.262Z,94841
2023-03-19T09:23:15.540Z,94840
2023-03-19T09:26:45.067Z,94851
2023-03-19T09:30:15.116Z,94854
2023-03-19T09:33:40.554Z,94847
2023-03-19T09:37:05.822Z,94849
2023-03-19T09:40:31.071Z,94857
2023-03-19T09:43:56.305Z,94861
2023-03-19T09:47:21.724Z,94858
2023-03-19T09:50:46.910Z,94866
2023-03-19T09:54:12.173Z,94864
2023-03-19T09:57:38.353Z,94866
2023-03-19T10:01:03.562Z,94874
2023-03-19T10:04:28.760Z,94870
2023-03-19T10:07:53.990Z,94871
2023-03-19T10:11:19.237Z,94875
2023-03-19T10:14:44.428Z,94872
2023-03-19T10:18:09.594Z,94878
2023-03-19T10:21:34.848Z,94891
2023-03-19T10:25:00.051Z,94893
2023-03-19T10:28:25.241Z,94890
2023-03-19T10:31:50.483Z,94894
2023-03-19T10:35:15.674Z,94904
2023-03-19T10:38:40.905Z,94905
2023-03-19T10:42:06.111Z,94903
2023-03-19T10:45:31.444Z,94904
2023-03-19T10:48:56.645Z,94906
2023-03-19T10:52:21.864Z,94914
2023-03-19T10:55:47.139Z,94910
2023-03-19T10:59:12.352Z,94920
2023-03-19T11:02:37.607Z,94917
2023-03-19T11:06:02.856Z,94914
2023-03-19T11:09:28.045Z,94918
2023-03-19T11:12:53.249Z,94924
2023-03-19T11:16:18.490Z,94921
2023-03-19T11:19:43.709Z,94920
2023-03-19T11:23:08.920Z,94922
2023-03-19T11:26:34.192Z,94918
2023-03-19T11:29:59.514Z,94920
2023-03-19T11:33:24.819Z,94914
2023-03-19T11:36:50.097Z,94922
2023-03-19T11:40:15.339Z,94920
2023-03-19T11:43:40.619Z,94914
2023-03-19T11:47:12.332Z,94906
2023-03-19T11:50:31.246Z,94907
2023-03-19T11:53:56.560Z,94905
2023-03-19T11:57:22.000Z,94902
2023-03-19T12:00:47.246Z,94896
2023-03-19T12:04:12.531Z,94890
2023-03-19T12:07:37.727Z,94886
2023-03-19T12:11:02.984Z,94886
2023-03-19T12:14:28.273Z,94884
2023-03-19T12:17:53.547Z,94886
2023-03-19T12:21:24.170Z,94877
2023-03-19T12:24:49.574Z,94875
2023-03-19T12:28:14.835Z,94879
2023-03-19T12:31:40.113Z,94873
2023-03-19T12:35:05.374Z,94870
2023-03-19T12:38:30.611Z,94868
2023-03-19T12:41:55.890Z,94870
2023-03-19T12:45:21.125Z,94868
2023-03-19T12:48:46.413Z,94866
2023-03-19T12:52:11.659Z,94858
2023-03-19T12:55:36.916Z,94858
2023-03-19T12:59:02.198Z,94852
2023-03-19T13:02:27.652Z,94854
2023-03-19T13:05:52.816Z,94855
2023-03-19T13:09:17.968Z,94855
2023-03-19T13:12:43.211Z,94853
2023-03-19T13:16:08.504Z,94851
2023-03-19T13:19:33.693Z,94852
2023-03-19T13:22:58.940Z,94857
2023-03-19T13:26:24.219Z,94854
2023-03-19T13:29:49.518Z,94855
2023-03-19T13:33:14.736Z,94852
2023-03-19T13:36:39.960Z,94846
2023-03-19T13:40:05.181Z,94843
2023-03-19T13:43:30.393Z,94842
2023-03-19T13:46:55.646Z,94847
2023-03-19T13:50:20.864Z,94845
2023-03-19T13:53:46.021Z,94835
2023-03-19T13:57:11.256Z,94836
2023-03-19T14:00:36.624Z,94832
2023-03-19T14:04:01.755Z,94823
2023-03-19T14:07:26.936Z,94828
2023-03-19T14:10:52.153Z,94825
2023-03-19T14:14:17.579Z,94828
2023-03-19T14:17:42.663Z,94824
2023-03-19T14:21:12.378Z,94825
2023-03-19T14:24:55.588Z,94825
2023-03-19T14:27:58.317Z,94833
2023-03-19T14:31:23.628Z,94826
2023-03-19T14:34:51.447Z,94822
2023-03-19T14:38:19.680Z,94822
2023-03-19T14:41:44.922Z,94824
2023-03-19T14:45:10.185Z,94821
2023-03-19T14:48:35.684Z,94814
2023-03-19T14:52:00.735Z,94807
2023-03-19T14:55:25.984Z,94808
2023-03-19T14:58:51.194Z,94812
2023-03-19T15:02:16.411Z,94807
2023-03-19T15:05:41.635Z,94806
2023-03-19T15:41:51.708Z,94814
2023-03-19T15:45:16.879Z,94812
2023-03-19T15:48:42.104Z,94821
2023-03-19T15:52:07.317Z,94817
2023-03-19T15:55:32.592Z,94810
2023-03-19T15:58:57.786Z,94817
2023-03-19T16:02:23.058Z,94809
2023-03-19T16:05:48.221Z,94806
2023-03-19T16:09:13.434Z,94816
2023-03-19T16:12:38.685Z,94820
2023-03-19T16:16:03.930Z,94816
2023-03-19T16:19:29.865Z,94822
2023-03-19T16:22:55.482Z,94821
2023-03-19T16:26:20.769Z,94822
2023-03-19T16:29:46.029Z,94818
2023-03-19T16:33:11.478Z,94826
2023-03-19T16:36:36.636Z,94830
2023-03-19T16:40:01.875Z,94829
2023-03-19T16:43:27.121Z,94834
2023-03-19T16:46:52.511Z,94836
2023-03-19T16:50:17.764Z,94835
2023-03-19T16:53:42.988Z,94839
2023-03-19T16:57:08.231Z,94839
2023-03-19T17:00:33.453Z,94844
2023-03-19T17:03:58.692Z,94850
2023-03-19T17:07:23.942Z,94862
2023-03-19T17:10:49.175Z,94865
2023-03-19T17:14:14.346Z,94880
2023-03-19T17:17:39.550Z,94880
2023-03-19T17:21:04.785Z,94878
2023-03-19T17:24:30.033Z,94879
2023-03-19T17:27:55.246Z,94889
2023-03-19T17:31:20.494Z,94900
2023-03-19T17:34:45.733Z,94898
2023-03-19T17:38:10.974Z,94904
2023-03-19T17:41:36.219Z,94901
2023-03-19T17:45:01.448Z,94900
2023-03-19T17:48:26.574Z,94897
2023-03-19T17:51:51.772Z,94896
2023-03-19T17:55:17.014Z,94898
2023-03-19T17:58:42.210Z,94909
2023-03-19T18:02:07.395Z,94903
2023-03-19T18:05:32.588Z,94906
2023-03-19T18:08:57.813Z,94906
2023-03-19T18:12:23.006Z,94906
2023-03-19T18:15:48.274Z,94910
2023-03-19T18:19:13.443Z,94913
2023-03-19T18:22:38.640Z,94912
2023-03-19T18:26:03.864Z,94914
2023-03-19T18:29:29.041Z,94920
2023-03-19T18:32:54.304Z,94917
2023-03-19T18:36:19.467Z,94921
2023-03-19T18:39:44.669Z,94927
2023-03-19T18:43:10.333Z,94926
2023-03-19T18:46:35.585Z,94930
2023-03-19T18:50:00.802Z,94941
2023-03-19T18:53:26.457Z,94939
2023-03-19T18:56:51.667Z,94945
2023-03-19T19:00:16.880Z,94949
2023-03-19T19:03:42.095Z,94946
2023-03-19T19:07:07.315Z,94952
2023-03-19T19:10:32.501Z,94951
2023-03-19T19:13:57.677Z,94953
2023-03-19T19:17:22.893Z,94959
2023-03-19T19:20:48.095Z,94958
2023-03-19T19:24:13.363Z,94964
2023-03-19T19:27:38.499Z,94969
2023-03-19T19:31:03.734Z,94981
2023-03-19T19:34:28.896Z,94984
2023-03-19T19:37:54.183Z,94990
2023-03-19T19:41:19.409Z,94988
2023-03-19T19:44:44.578Z,94984
2023-03-19T19:48:09.780Z,94985
2023-03-19T19:51:34.975Z,94990
2023-03-19T19:55:00.166Z,95001
2023-03-19T19:58:25.378Z,94999
2023-03-19T20:01:50.687Z,95002
2023-03-19T20:05:15.758Z,95003
2023-03-19T20:08:40.966Z,95004
2023-03-19T20:12:06.135Z,95005
2023-03-19T20:15:31.397Z,95008
2023-03-19T20:18:56.583Z,95012
2023-03-19T20:22:21.791Z,95012
2023-03-19T20:25:46.990Z,95011
2023-03-19T20:29:12.188Z,95013
2023-03-19T20:32:37.530Z,95012
2023-03-19T20:36:02.678Z,95008
2023-03-19T20:39:27.776Z,95002
2023-03-19T20:42:52.993Z,95008
2023-03-19T20:46:18.205Z,95004
2023-03-19T20:49:43.419Z,95007
2023-03-19T20:53:08.597Z,94999
2023-03-19T20:56:33.875Z,94997
2023-03-19T20:59:59.080Z,95000
2023-03-19T21:03:24.278Z,94999
2023-03-19T21:06:53.605Z,94996
2023-03-19T21:10:14.695Z,94999
2023-03-19T21:13:39.919Z,94994
2023-03-19T21:17:05.167Z,94999
2023-03-19T21:20:30.440Z,95000
2023-03-19T21:23:55.651Z,95001
2023-03-19T21:27:20.848Z,94996
2023-03-19T21:30:46.056Z,94993
2023-03-19T21:34:11.328Z,95001
2023-03-19T21:37:36.553Z,95005
2023-03-19T21:41:01.830Z,94996
2023-03-19T21:44:27.039Z,94998
2023-03-19T21:47:52.317Z,94992
2023-03-19T21:51:17.537Z,94997
2023-03-19T21:54:42.734Z,95007
2023-03-19T21:58:08.001Z,95004
2023-03-19T22:01:33.191Z,95001
2023-03-19T22:04:58.394Z,95007
2023-03-19T22:08:23.598Z,95004
2023-03-19T22:11:48.846Z,95002
2023-03-19T22:15:14.029Z,95005
2023-03-19T22:18:39.222Z,95005
2023-03-19T22:22:04.479Z,95007
2023-03-19T22:25:29.653Z,95006
2023-03-19T22:28:54.831Z,95008
2023-03-19T22:32:20.075Z,95014
2023-03-19T22:35:45.259Z,95011
2023-03-19T22:39:10.455Z,95013
2023-03-19T22:42:35.661Z,95015
2023-03-19T22:46:00.914Z,95016
2023-03-19T22:49:26.098Z,95014
2023-03-19T22:52:51.286Z,95014
2023-03-19T22:56:16.503Z,95014
2023-03-19T22:59:41.735Z,95009
2023-03-19T23:03:06.947Z,95013
2023-03-19T23:06:32.162Z,95013
2023-03-19T23:09:57.333Z,95009
2023-03-19T23:13:22.553Z,95012
2023-03-19T23:16:47.782Z,95009
2023-03-19T23:20:12.943Z,95009
2023-03-19T23:23:38.158Z,95007
2023-03-19T23:27:03.353Z,95016
2023-03-19T23:30:28.552Z,95010
2023-03-19T23:33:53.730Z,95011
2023-03-19T23:37:18.935Z,95006
2023-03-19T23:40:44.154Z,95019
2023-03-19T23:44:09.322Z,95020
2023-03-19T23:47:34.522Z,95014
2023-03-19T23:50:59.722Z,95011
2023-03-19T23:54:24.928Z,95007
2023-03-19T23:57:50.152Z,95010
